Time;durP1;ratioP1;P1;durP2;ratioP2;P2;SDS_P1;SDS_P2;PMS_P1;PMS_P2;Temp;Humidity;BMP_temperature;BMP_pressure;BME280_temperature;BME280_humidity;BME280_pressure;Samples;Min_cycle;Max_cycle;Signal;HPM_P1;HPM_P2
2022/07/12 00:01:31;;;;;;;4.47;2.70;;;11.90;99.90;;;;;;5031757;28;20388;-82
2022/07/12 00:03:57;;;;;;;4.10;3.00;;;11.80;99.90;;;;;;5033949;28;20437;-82
2022/07/12 00:06:23;;;;;;;3.22;2.63;;;11.80;99.90;;;;;;5032334;28;20401;-81
2022/07/12 00:08:48;;;;;;;2.97;2.50;;;11.70;99.90;;;;;;5033398;28;20863;-81
2022/07/12 00:11:14;;;;;;;4.70;2.70;;;11.70;99.90;;;;;;5033133;28;20875;-81
2022/07/12 00:13:40;;;;;;;3.75;2.42;;;11.70;99.90;;;;;;5033258;28;20366;-81
2022/07/12 00:16:06;;;;;;;3.87;2.40;;;11.70;99.90;;;;;;5033392;28;20437;-82
2022/07/12 00:18:31;;;;;;;7.23;2.73;;;11.70;99.90;;;;;;5032944;28;20385;-81
2022/07/12 00:20:57;;;;;;;4.33;2.80;;;11.70;99.90;;;;;;5033376;28;20451;-81
2022/07/12 00:23:23;;;;;;;4.28;2.70;;;11.70;99.90;;;;;;5033089;28;20394;-81
2022/07/12 00:25:48;;;;;;;5.78;2.83;;;11.70;99.90;;;;;;5032362;28;20385;-81
2022/07/12 00:28:15;;;;;;;4.10;2.50;;;11.60;99.90;;;;;;5032590;28;20381;-81
2022/07/12 00:30:41;;;;;;;2.90;2.20;;;11.60;99.90;;;;;;5033298;28;20514;-81
2022/07/12 00:33:06;;;;;;;4.67;2.40;;;11.60;99.90;;;;;;5032514;28;20381;-81
2022/07/12 00:35:32;;;;;;;3.23;2.43;;;11.50;99.90;;;;;;5033294;28;20910;-81
2022/07/12 00:37:58;;;;;;;3.47;2.30;;;11.50;99.90;;;;;;5032648;28;20401;-81
2022/07/12 00:40:23;;;;;;;2.60;2.30;;;11.40;99.90;;;;;;5031356;28;20389;-81
2022/07/12 00:42:49;;;;;;;3.47;2.40;;;11.40;99.90;;;;;;5032708;28;20814;-81
2022/07/12 00:45:14;;;;;;;3.17;2.33;;;11.30;99.90;;;;;;5029560;28;20398;-81
2022/07/12 00:47:44;;;;;;;4.00;2.50;;;11.30;99.90;;;;;;5031019;28;21395;-81
2022/07/12 00:50:21;;;;;;;2.55;2.10;;;11.30;99.90;;;;;;5029812;28;20393;-81
2022/07/12 00:52:50;;;;;;;2.78;2.30;;;11.30;99.90;;;;;;5031058;28;20394;-81
2022/07/12 00:55:17;;;;;;;3.38;2.30;;;11.30;99.90;;;;;;5029199;28;20870;-81
2022/07/12 00:57:43;;;;;;;4.05;2.38;;;11.30;99.90;;;;;;5030810;28;20393;-81
2022/07/12 01:00:13;;;;;;;2.80;2.20;;;11.30;99.90;;;;;;5031262;28;20374;-81
2022/07/12 01:02:39;;;;;;;3.70;2.40;;;11.30;99.90;;;;;;5030322;28;20425;-81
2022/07/12 01:05:07;;;;;;;3.85;2.40;;;11.30;99.90;;;;;;5030275;28;20432;-81
2022/07/12 01:07:34;;;;;;;3.78;2.30;;;11.20;99.90;;;;;;5029070;28;20485;-81
2022/07/12 01:10:01;;;;;;;3.10;2.10;;;11.20;99.90;;;;;;5030639;28;20389;-81
2022/07/12 01:12:27;;;;;;;2.42;2.20;;;11.10;99.90;;;;;;5029980;28;20764;-81
2022/07/12 01:14:53;;;;;;;2.95;2.50;;;11.00;99.90;;;;;;5031308;28;20368;-81
2022/07/12 01:17:23;;;;;;;2.50;2.20;;;11.00;99.90;;;;;;5029437;28;20408;-81
2022/07/12 01:19:51;;;;;;;3.63;2.58;;;11.00;99.90;;;;;;5030041;28;20386;-81
2022/07/12 01:22:18;;;;;;;6.55;2.47;;;10.90;99.90;;;;;;5031190;28;20934;-81
2022/07/12 01:24:44;;;;;;;2.83;2.40;;;10.90;99.90;;;;;;5031345;28;20424;-81
2022/07/12 01:27:11;;;;;;;3.63;2.22;;;10.90;99.90;;;;;;5030151;28;20398;-81
2022/07/12 01:29:37;;;;;;;3.70;2.30;;;10.80;99.90;;;;;;5032192;28;20433;-81
2022/07/12 01:32:25;;;;;;;3.97;2.30;;;10.80;99.90;;;;;;5031776;28;20385;-80
2022/07/12 01:34:57;;;;;;;2.40;2.05;;;10.80;99.90;;;;;;5030109;28;20836;-81
2022/07/12 01:37:24;;;;;;;3.80;2.60;;;10.70;99.90;;;;;;5029661;28;20464;-80
2022/07/12 01:39:52;;;;;;;2.47;2.27;;;10.70;99.90;;;;;;5031513;28;20512;-82
2022/07/12 01:42:19;;;;;;;3.45;2.60;;;10.70;99.90;;;;;;5032174;28;20382;-81
2022/07/12 01:44:44;;;;;;;4.10;2.40;;;10.70;99.90;;;;;;5030900;28;20370;-81
2022/07/12 01:47:11;;;;;;;4.17;2.60;;;10.60;99.90;;;;;;5030174;28;20760;-82
2022/07/12 01:49:37;;;;;;;3.83;2.67;;;10.60;99.90;;;;;;5031973;28;20460;-81
2022/07/12 01:52:03;;;;;;;4.63;2.53;;;10.60;99.90;;;;;;5031254;28;21030;-82
2022/07/12 01:54:28;;;;;;;4.37;3.10;;;10.50;99.90;;;;;;5031547;28;20401;-81
2022/07/12 01:56:54;;;;;;;3.33;2.63;;;10.50;99.90;;;;;;5031953;28;20424;-81
2022/07/12 01:59:21;;;;;;;2.42;2.22;;;10.50;99.90;;;;;;5030254;28;20488;-81
2022/07/12 02:01:47;;;;;;;3.33;2.50;;;10.50;99.90;;;;;;5032797;28;20378;-82
2022/07/12 02:04:16;;;;;;;2.58;2.17;;;10.50;99.90;;;;;;5033761;28;20488;-82
2022/07/12 02:06:44;;;;;;;2.67;2.10;;;10.40;99.90;;;;;;5031371;28;20480;-83
2022/07/12 02:09:13;;;;;;;4.23;2.60;;;10.40;99.90;;;;;;5031935;28;20409;-81
2022/07/12 02:11:40;;;;;;;3.42;2.28;;;10.40;99.90;;;;;;5033227;28;20472;-82
2022/07/12 02:14:06;;;;;;;6.10;2.42;;;10.30;99.90;;;;;;5029792;28;20429;-81
2022/07/12 02:16:32;;;;;;;5.03;2.90;;;10.30;99.90;;;;;;5030338;28;20501;-81
2022/07/12 02:18:58;;;;;;;3.47;2.72;;;10.30;99.90;;;;;;5030653;28;20383;-82
2022/07/12 02:21:25;;;;;;;3.67;2.60;;;10.30;99.90;;;;;;5030524;28;20471;-82
2022/07/12 02:23:50;;;;;;;3.28;2.80;;;10.30;99.90;;;;;;5030822;28;20397;-82
2022/07/12 02:26:16;;;;;;;4.43;2.70;;;10.30;99.90;;;;;;5031324;28;20459;-82
2022/07/12 02:28:42;;;;;;;4.25;2.60;;;10.30;99.90;;;;;;5030026;28;20475;-82
2022/07/12 02:31:08;;;;;;;4.30;2.70;;;10.30;99.90;;;;;;5029425;28;20423;-81
2022/07/12 02:33:34;;;;;;;4.07;3.00;;;10.30;99.90;;;;;;5030071;28;20456;-82
2022/07/12 02:36:00;;;;;;;5.80;3.00;;;10.30;99.90;;;;;;5029796;28;20396;-82
2022/07/12 02:38:26;;;;;;;4.20;2.90;;;10.20;99.90;;;;;;5028270;28;20412;-81
2022/07/12 02:40:54;;;;;;;4.78;2.90;;;10.20;99.90;;;;;;5029480;28;20857;-81
2022/07/12 02:43:24;;;;;;;3.95;2.78;;;10.20;99.90;;;;;;5029560;28;20385;-81
2022/07/12 02:45:51;;;;;;;5.20;3.20;;;10.20;99.90;;;;;;5027454;28;20406;-82
2022/07/12 02:48:17;;;;;;;3.63;2.67;;;10.20;99.90;;;;;;5028217;28;20389;-81
2022/07/12 02:50:42;;;;;;;3.63;2.92;;;10.30;99.90;;;;;;5029602;28;20374;-82
2022/07/12 02:53:09;;;;;;;4.87;3.40;;;10.20;99.90;;;;;;5028696;28;20744;-82
2022/07/12 02:55:35;;;;;;;3.73;2.90;;;10.20;99.90;;;;;;5029516;28;20393;-82
2022/07/12 02:58:01;;;;;;;3.00;2.70;;;10.20;99.90;;;;;;5030325;28;20925;-81
2022/07/12 03:00:28;;;;;;;4.47;2.90;;;10.20;99.90;;;;;;5030358;28;20385;-83
2022/07/12 03:02:54;;;;;;;4.63;2.97;;;10.20;99.90;;;;;;5030298;28;20389;-83
2022/07/12 03:05:19;;;;;;;4.53;3.33;;;10.20;99.90;;;;;;5031358;28;20408;-83
2022/07/12 03:07:45;;;;;;;4.80;3.20;;;10.20;99.90;;;;;;5030364;28;20404;-82
2022/07/12 03:10:11;;;;;;;6.00;3.22;;;10.20;99.90;;;;;;5024202;28;20400;-82
2022/07/12 03:12:38;;;;;;;4.20;3.13;;;10.30;99.90;;;;;;5030816;28;20382;-82
2022/07/12 03:15:05;;;;;;;4.22;3.03;;;10.30;99.90;;;;;;5031166;28;20378;-81
2022/07/12 03:17:32;;;;;;;3.95;3.20;;;10.20;99.90;;;;;;5030404;28;20412;-82
2022/07/12 03:19:57;;;;;;;3.57;2.70;;;10.30;99.90;;;;;;5027983;28;20390;-82
2022/07/12 03:22:23;;;;;;;4.57;3.13;;;10.30;99.90;;;;;;5029510;28;20384;-82
2022/07/12 03:24:49;;;;;;;3.85;2.88;;;10.30;99.90;;;;;;5029668;28;20469;-82
2022/07/12 03:27:15;;;;;;;4.20;2.80;;;10.30;99.90;;;;;;5031070;28;20397;-81
2022/07/12 03:29:40;;;;;;;3.65;3.00;;;10.30;99.90;;;;;;5033441;28;20444;-82
2022/07/12 03:32:07;;;;;;;4.00;3.20;;;10.30;99.90;;;;;;5033203;28;20385;-82
2022/07/12 03:34:33;;;;;;;3.20;2.85;;;10.40;99.90;;;;;;5033180;28;20374;-82
2022/07/12 03:36:58;;;;;;;5.15;3.42;;;10.40;99.90;;;;;;5032667;28;20390;-83
2022/07/12 03:39:24;;;;;;;3.83;3.00;;;10.40;99.90;;;;;;5032790;28;20382;-82
2022/07/12 03:41:50;;;;;;;3.93;2.80;;;10.50;99.90;;;;;;5031933;28;20435;-82
2022/07/12 03:44:15;;;;;;;4.60;2.90;;;10.50;99.90;;;;;;5033190;28;20373;-82
2022/07/12 03:46:41;;;;;;;4.38;2.95;;;10.50;99.90;;;;;;5032124;28;20401;-83
2022/07/12 03:49:07;;;;;;;3.05;2.70;;;10.50;99.90;;;;;;5032049;28;20937;-82
2022/07/12 03:51:33;;;;;;;3.53;3.10;;;10.50;99.90;;;;;;5032157;28;20419;-81
2022/07/12 03:53:59;;;;;;;3.47;2.80;;;10.50;99.90;;;;;;5031834;28;21001;-81
2022/07/12 03:59:09;;;;;;;3.10;2.80;;;10.60;99.90;;;;;;5031907;28;20763;-81
2022/07/12 04:01:35;;;;;;;4.07;2.70;;;10.70;99.90;;;;;;5030993;28;20385;-83
2022/07/12 04:04:01;;;;;;;4.75;2.85;;;10.70;99.90;;;;;;5032910;28;21101;-82
2022/07/12 04:06:27;;;;;;;4.30;3.35;;;10.80;99.90;;;;;;5032607;28;20469;-81
2022/07/12 04:08:52;;;;;;;4.57;3.43;;;10.90;99.90;;;;;;5032997;28;20425;-82
2022/07/12 04:11:18;;;;;;;4.27;3.00;;;11.10;99.90;;;;;;5034322;28;20417;-81
2022/07/12 04:13:43;;;;;;;5.28;2.90;;;11.20;99.90;;;;;;5034120;28;20382;-82
2022/07/12 04:16:09;;;;;;;4.07;2.80;;;11.20;99.90;;;;;;5034479;28;20744;-83
2022/07/12 04:18:35;;;;;;;4.25;3.00;;;11.30;99.90;;;;;;5034902;28;20431;-82
2022/07/12 04:21:00;;;;;;;7.30;3.38;;;11.20;99.90;;;;;;5034985;28;21017;-83
2022/07/12 04:23:26;;;;;;;4.27;2.90;;;11.20;99.90;;;;;;5033384;28;20392;-82
2022/07/12 04:25:52;;;;;;;4.18;2.95;;;11.30;99.90;;;;;;5033937;28;20474;-83
2022/07/12 04:28:17;;;;;;;3.58;2.83;;;11.30;99.90;;;;;;5032353;28;20390;-82
2022/07/12 04:30:44;;;;;;;3.70;2.80;;;11.40;99.90;;;;;;5032604;28;20452;-83
2022/07/12 04:33:10;;;;;;;3.90;2.95;;;11.60;99.90;;;;;;5032038;28;20466;-82
2022/07/12 04:35:36;;;;;;;4.40;3.10;;;11.60;99.90;;;;;;5032539;28;20377;-82
2022/07/12 04:38:03;;;;;;;5.13;3.30;;;11.80;99.90;;;;;;5030022;28;21449;-83
2022/07/12 04:40:28;;;;;;;5.67;3.40;;;11.90;99.90;;;;;;5033441;28;20468;-83
2022/07/12 04:42:54;;;;;;;4.67;3.20;;;12.10;99.90;;;;;;5033056;28;20413;-82
2022/07/12 04:45:20;;;;;;;4.32;2.80;;;12.30;99.90;;;;;;5032085;28;20370;-82
2022/07/12 04:47:45;;;;;;;4.45;2.38;;;12.60;99.90;;;;;;5033861;28;20461;-82
2022/07/12 04:50:11;;;;;;;7.93;2.77;;;13.00;99.90;;;;;;5033551;28;20935;-82
2022/07/12 04:52:37;;;;;;;6.57;2.53;;;13.40;99.90;;;;;;5033418;28;20449;-83
2022/07/12 04:55:04;;;;;;;4.80;2.28;;;13.90;99.90;;;;;;5031674;28;20451;-82
2022/07/12 04:57:29;;;;;;;3.70;2.07;;;14.30;99.90;;;;;;5032428;28;20775;-82
2022/07/12 04:59:55;;;;;;;3.53;2.10;;;14.60;99.90;;;;;;5032260;28;20420;-82
2022/07/12 05:02:20;;;;;;;2.95;2.08;;;14.80;99.90;;;;;;5032119;28;20374;-81
2022/07/12 05:04:46;;;;;;;3.70;1.80;;;15.20;99.90;;;;;;5031560;28;20887;-82
2022/07/12 05:07:12;;;;;;;3.53;2.00;;;15.80;99.90;;;;;;5031009;28;20405;-82
2022/07/12 05:09:38;;;;;;;2.67;1.63;;;16.20;99.90;;;;;;5030839;28;20389;-81
2022/07/12 05:12:04;;;;;;;5.03;1.95;;;16.50;99.90;;;;;;5023551;28;20726;-82
2022/07/12 05:14:30;;;;;;;5.78;2.00;;;16.60;99.90;;;;;;5011188;28;20887;-81
2022/07/12 05:16:55;;;;;;;2.67;1.50;;;16.40;99.90;;;;;;5010946;28;20388;-82
2022/07/12 05:19:21;;;;;;;2.30;1.53;;;16.30;99.90;;;;;;5013552;28;20495;-81
2022/07/12 05:21:47;;;;;;;3.30;1.80;;;16.30;99.90;;;;;;5029937;28;20443;-82
2022/07/12 05:24:13;;;;;;;5.00;1.95;;;16.50;99.90;;;;;;5028730;28;20397;-81
2022/07/12 05:26:39;;;;;;;3.88;1.90;;;16.90;99.90;;;;;;5030753;28;20471;-83
2022/07/12 05:29:04;;;;;;;2.93;2.03;;;17.20;99.90;;;;;;5030128;28;20440;-83
2022/07/12 05:31:30;;;;;;;2.78;1.85;;;17.40;99.90;;;;;;5030989;28;20443;-83
2022/07/12 05:33:55;;;;;;;3.77;2.20;;;17.50;99.90;;;;;;5030038;28;20447;-83
2022/07/12 05:36:21;;;;;;;4.35;2.20;;;17.50;99.90;;;;;;5029357;28;20397;-82
2022/07/12 05:38:47;;;;;;;4.63;2.10;;;17.40;99.90;;;;;;5029712;28;20981;-82
2022/07/12 05:41:13;;;;;;;3.17;2.23;;;17.40;99.90;;;;;;5031451;28;20969;-82
2022/07/12 05:43:38;;;;;;;5.95;2.28;;;17.30;99.90;;;;;;5031510;28;20378;-83
2022/07/12 05:46:05;;;;;;;5.83;2.30;;;17.20;99.90;;;;;;5031333;28;20416;-83
2022/07/12 05:48:31;;;;;;;6.28;2.80;;;17.20;99.90;;;;;;5030074;28;20883;-82
2022/07/12 05:53:21;;;;;;;5.23;2.43;;;17.20;99.90;;;;;;5030807;28;20374;-82
2022/07/12 05:53:42;;;;;;;3.55;2.05;;;17.20;99.90;;;;;;5031023;28;20395;-82
2022/07/12 05:56:07;;;;;;;4.00;2.00;;;17.10;99.90;;;;;;5029591;28;20488;-81
2022/07/12 05:58:33;;;;;;;5.78;2.45;;;17.20;99.90;;;;;;5029947;28;20436;-82
2022/07/12 06:00:59;;;;;;;6.97;2.57;;;17.30;99.90;;;;;;5031438;28;20401;-81
2022/07/12 06:03:24;;;;;;;5.78;2.40;;;17.50;99.90;;;;;;5030117;28;20382;-83
2022/07/12 06:05:50;;;;;;;3.40;1.70;;;17.70;99.90;;;;;;5030108;28;20401;-83
2022/07/12 06:08:16;;;;;;;3.93;2.17;;;17.80;99.90;;;;;;5029627;28;20404;-81
2022/07/12 06:10:42;;;;;;;4.68;2.20;;;17.90;99.90;;;;;;5028009;28;20496;-83
2022/07/12 06:13:09;;;;;;;3.35;1.80;;;18.00;99.90;;;;;;5030374;28;20464;-81
2022/07/12 06:15:35;;;;;;;3.08;1.77;;;18.10;99.90;;;;;;5028785;28;20484;-83
2022/07/12 06:18:03;;;;;;;3.45;2.00;;;18.20;99.90;;;;;;5029832;28;20413;-81
2022/07/12 06:20:29;;;;;;;4.88;1.70;;;18.20;99.90;;;;;;5030544;28;20386;-82
2022/07/12 06:22:55;;;;;;;4.10;2.05;;;18.50;99.90;;;;;;5029842;28;20405;-82
2022/07/12 06:25:22;;;;;;;2.60;1.70;;;18.70;99.90;;;;;;5028292;28;20810;-83
2022/07/12 06:27:48;;;;;;;4.33;1.50;;;19.10;99.90;;;;;;5028242;28;20390;-83
2022/07/12 06:30:20;;;;;;;3.80;1.30;;;20.00;99.90;;;;;;5028955;28;20755;-83
2022/07/12 06:32:46;;;;;;;4.60;1.60;;;20.00;99.90;;;;;;5027883;28;20790;-84
2022/07/12 06:35:15;;;;;;;6.60;1.70;;;20.30;99.90;;;;;;5028595;28;20763;-83
2022/07/12 06:37:41;;;;;;;3.55;1.70;;;20.60;99.90;;;;;;5029203;28;20404;-83
2022/07/12 06:40:07;;;;;;;3.85;1.48;;;21.00;99.90;;;;;;5029979;28;20392;-83
2022/07/12 06:42:33;;;;;;;5.32;1.70;;;21.00;99.90;;;;;;5029317;28;20732;-82
2022/07/12 06:44:59;;;;;;;3.67;1.58;;;21.10;99.90;;;;;;5029184;28;20470;-83
2022/07/12 06:47:25;;;;;;;4.07;1.60;;;21.30;99.90;;;;;;5027691;28;20919;-81
2022/07/12 06:49:51;;;;;;;3.10;1.50;;;21.30;99.90;;;;;;5027994;28;20421;-83
2022/07/12 06:52:17;;;;;;;4.72;1.52;;;21.40;99.90;;;;;;5029370;28;20408;-81
2022/07/12 06:54:42;;;;;;;4.88;1.60;;;22.00;99.90;;;;;;5029251;28;20951;-83
2022/07/12 06:57:08;;;;;;;2.57;1.47;;;22.10;99.90;;;;;;5028657;28;20401;-84
2022/07/12 06:59:34;;;;;;;4.25;1.40;;;22.40;99.90;;;;;;5029688;28;20396;-82
2022/07/12 07:01:59;;;;;;;5.63;1.90;;;22.70;99.90;;;;;;5030336;28;20389;-83
2022/07/12 07:04:25;;;;;;;2.87;1.30;;;23.10;99.90;;;;;;5036181;28;20419;-83
2022/07/12 07:06:51;;;;;;;2.58;1.25;;;23.50;99.90;;;;;;5035050;28;20452;-84
2022/07/12 07:09:17;;;;;;;1.53;1.03;;;23.80;99.90;;;;;;5034725;28;20448;-84
2022/07/12 07:11:43;;;;;;;3.42;1.40;;;24.20;99.90;;;;;;5033961;28;20400;-83
2022/07/12 07:14:09;;;;;;;6.00;1.90;;;24.20;99.90;;;;;;5034942;28;20381;-84
2022/07/12 07:16:35;;;;;;;8.73;1.50;;;24.50;99.40;;;;;;5033845;28;20964;-83
2022/07/12 07:19:02;;;;;;;3.45;1.30;;;24.60;99.90;;;;;;5033975;28;20393;-83
2022/07/12 07:21:28;;;;;;;3.67;1.30;;;24.60;99.40;;;;;;5034700;28;20504;-84
2022/07/12 07:23:54;;;;;;;3.05;1.10;;;24.60;99.40;;;;;;5032534;28;20404;-84
2022/07/12 07:26:21;;;;;;;3.08;1.27;;;24.40;98.60;;;;;;5033270;28;20459;-84
2022/07/12 07:31:35;;;;;;;5.03;1.60;;;23.80;99.50;;;;;;5034216;28;20400;-84
2022/07/12 07:34:01;;;;;;;4.40;1.50;;;24.00;99.90;;;;;;5034790;28;20405;-83
2022/07/12 07:36:27;;;;;;;3.25;1.38;;;24.30;99.90;;;;;;5032923;28;20416;-82
2022/07/12 07:38:54;;;;;;;4.03;1.47;;;24.60;99.60;;;;;;5030676;28;20433;-84
2022/07/12 07:41:20;;;;;;;3.78;1.38;;;24.60;99.40;;;;;;5030805;28;20804;-84
2022/07/12 07:43:46;;;;;;;2.90;1.53;;;24.40;99.90;;;;;;5031482;28;20396;-83
2022/07/12 07:46:11;;;;;;;6.22;1.40;;;24.50;99.90;;;;;;5032889;28;20895;-83
2022/07/12 07:48:37;;;;;;;3.30;1.20;;;24.40;98.80;;;;;;5031300;28;20390;-84
2022/07/12 07:51:03;;;;;;;2.97;1.20;;;24.20;99.90;;;;;;5032691;28;20382;-84
2022/07/12 07:53:29;;;;;;;3.20;1.20;;;24.40;98.10;;;;;;5034461;28;20380;-84
2022/07/12 07:55:54;;;;;;;2.75;1.13;;;24.50;99.60;;;;;;5031095;28;20891;-83
2022/07/12 07:58:20;;;;;;;2.70;1.30;;;24.60;98.80;;;;;;5032212;28;20383;-79
2022/07/12 08:00:47;;;;;;;3.45;1.00;;;24.70;96.20;;;;;;5032162;28;20423;-83
2022/07/12 08:03:13;;;;;;;1.88;1.08;;;24.60;97.90;;;;;;5032286;28;20385;-81
2022/07/12 08:05:38;;;;;;;3.03;1.27;;;24.80;95.80;;;;;;5031872;28;20739;-82
2022/07/12 08:08:04;;;;;;;2.90;1.10;;;24.80;96.90;;;;;;5032455;28;20377;-81
2022/07/12 08:10:30;;;;;;;2.80;1.00;;;24.80;95.60;;;;;;5032751;28;20401;-81
2022/07/12 08:12:56;;;;;;;2.30;1.10;;;24.60;95.30;;;;;;5032575;28;20409;-81
2022/07/12 08:15:21;;;;;;;1.63;1.00;;;24.60;95.50;;;;;;5030401;28;20432;-82
2022/07/12 08:17:47;;;;;;;2.90;1.15;;;24.50;99.50;;;;;;5032935;28;20380;-82
2022/07/12 08:20:14;;;;;;;2.87;1.07;;;24.30;99.70;;;;;;5033800;28;20390;-81
2022/07/12 08:22:44;;;;;;;2.80;1.10;;;24.20;99.90;;;;;;5032497;28;21104;-83
2022/07/12 08:25:11;;;;;;;1.50;1.00;;;24.30;99.90;;;;;;5032912;28;20397;-82
2022/07/12 08:27:37;;;;;;;3.88;1.20;;;;;;;;;;5032667;28;20778;-84
2022/07/12 08:30:04;;;;;;;2.80;1.08;;;24.60;96.30;;;;;;5034776;28;20365;-83
2022/07/12 08:32:30;;;;;;;1.73;1.20;;;;;;;;;;5032627;28;20378;-80
2022/07/12 08:34:56;;;;;;;4.03;1.30;;;;;;;;;;5032960;28;20891;-82
2022/07/12 08:37:22;;;;;;;2.78;1.20;;;;;;;;;;5013764;28;20430;-82
2022/07/12 08:39:48;;;;;;;3.53;1.30;;;25.50;95.10;;;;;;5017595;28;20389;-82
2022/07/12 08:42:15;;;;;;;3.63;1.40;;;25.60;95.20;;;;;;5033528;28;20735;-84
2022/07/12 08:44:42;;;;;;;2.50;1.00;;;25.60;93.80;;;;;;5033068;28;20374;-82
2022/07/12 08:47:10;;;;;;;3.05;1.02;;;25.30;94.90;;;;;;5032584;28;20414;-82
2022/07/12 08:49:37;;;;;;;1.90;1.03;;;25.30;95.30;;;;;;5033196;28;20388;-82
2022/07/12 08:52:25;;;;;;;2.53;1.10;;;25.30;93.60;;;;;;5030911;28;20481;-83
2022/07/12 08:54:52;;;;;;;2.53;0.93;;;;;;;;;;5033237;28;20477;-82
2022/07/12 08:57:30;;;;;;;1.70;1.00;;;25.50;93.10;;;;;;5034273;28;20418;-84
2022/07/12 09:00:00;;;;;;;3.38;1.20;;;25.50;95.10;;;;;;5036328;28;20389;-82
2022/07/12 09:02:29;;;;;;;2.38;1.10;;;25.80;95.10;;;;;;5033285;28;20480;-83
2022/07/12 09:05:28;;;;;;;3.72;1.10;;;25.90;95.30;;;;;;5028978;28;20503;-83
2022/07/12 09:08:05;;;;;;;9.03;1.40;;;25.80;94.80;;;;;;5034307;28;20398;-83
2022/07/12 09:10:31;;;;;;;2.40;1.10;;;25.90;93.20;;;;;;5035556;28;20886;-83
2022/07/12 09:12:57;;;;;;;2.90;1.50;;;25.80;92.90;;;;;;5035126;28;20462;-82
2022/07/12 09:15:24;;;;;;;2.13;1.02;;;25.40;92.70;;;;;;5032087;28;20476;-84
2022/07/12 09:18:13;;;;;;;3.60;1.40;;;25.10;93.00;;;;;;5033214;28;20391;-82
2022/07/12 09:20:40;;;;;;;3.67;1.10;;;25.10;95.00;;;;;;5032308;28;20393;-84
2022/07/12 09:23:09;;;;;;;2.78;1.10;;;25.30;93.60;;;;;;5036069;28;20392;-83
2022/07/12 09:25:50;;;;;;;2.90;1.25;;;25.50;93.90;;;;;;5034228;28;20376;-84
2022/07/12 09:28:16;;;;;;;3.43;1.00;;;25.60;93.40;;;;;;5032902;28;20394;-83
2022/07/12 09:30:52;;;;;;;12.85;1.77;;;25.50;91.90;;;;;;5034509;28;20455;-83
2022/07/12 09:36:07;;;;;;;2.63;1.30;;;25.10;92.70;;;;;;5030188;28;20401;-82
2022/07/12 09:38:38;;;;;;;4.55;1.20;;;25.00;92.30;;;;;;5031750;28;20459;-82
2022/07/12 09:41:05;;;;;;;4.47;1.30;;;25.10;93.40;;;;;;5033475;28;20385;-82
2022/07/12 09:43:31;;;;;;;3.10;0.97;;;25.40;94.50;;;;;;5031961;28;20455;-83
2022/07/12 09:45:58;;;;;;;2.42;1.00;;;25.50;94.40;;;;;;5031753;28;20394;-83
2022/07/12 09:48:27;;;;;;;2.25;0.93;;;25.20;92.80;;;;;;5032236;28;20377;-84
2022/07/12 09:50:53;;;;;;;3.23;1.10;;;25.20;94.80;;;;;;5031292;28;20389;-83
2022/07/12 09:53:30;;;;;;;3.10;0.95;;;25.40;93.10;;;;;;5030600;28;20412;-84
2022/07/12 09:55:56;;;;;;;5.53;1.20;;;25.60;94.50;;;;;;5031982;28;20464;-82
2022/07/12 09:58:26;;;;;;;3.65;1.38;;;25.80;92.80;;;;;;5030088;28;20480;-82
2022/07/12 10:00:53;;;;;;;3.00;1.10;;;25.80;92.10;;;;;;5033095;28;20388;-84
2022/07/12 10:03:25;;;;;;;3.28;0.98;;;25.90;92.00;;;;;;5034851;28;20388;-81
2022/07/12 10:05:55;;;;;;;1.90;1.00;;;25.90;92.00;;;;;;5035510;28;20408;-85
2022/07/12 10:08:21;;;;;;;2.22;1.00;;;26.00;92.60;;;;;;5035175;28;20882;-83
2022/07/12 10:10:49;;;;;;;3.40;1.03;;;26.20;92.80;;;;;;5034439;28;20381;-83
2022/07/12 10:13:16;;;;;;;1.20;0.77;;;26.40;91.40;;;;;;5015300;28;20481;-83
2022/07/12 10:15:46;;;;;;;3.30;1.10;;;26.30;88.90;;;;;;5031392;28;20409;-84
2022/07/12 10:18:20;;;;;;;5.30;1.17;;;26.10;91.10;;;;;;5031659;28;20396;-84
2022/07/12 10:20:48;;;;;;;1.55;0.90;;;25.90;91.10;;;;;;5032504;28;20457;-83
2022/07/12 10:23:26;;;;;;;3.90;1.10;;;25.90;93.50;;;;;;5031238;28;20392;-83
2022/07/12 10:25:51;;;;;;;2.95;1.00;;;26.10;94.00;;;;;;5031380;28;20898;-82
2022/07/12 10:28:17;;;;;;;1.50;0.82;;;26.40;91.40;;;;;;5029702;28;20429;-84
2022/07/12 10:30:45;;;;;;;1.80;0.83;;;26.30;90.00;;;;;;5028965;28;20461;-84
2022/07/12 10:33:24;;;;;;;3.38;1.10;;;26.20;90.80;;;;;;5018875;28;20934;-83
2022/07/12 10:36:08;;;;;;;0.90;0.60;;;26.30;89.50;;;;;;5018563;28;20403;-83
2022/07/12 10:38:35;;;;;;;1.25;0.60;;;25.80;84.60;;;;;;5016789;28;20403;-83
2022/07/12 10:41:24;;;;;;;1.02;0.70;;;25.80;88.80;;;;;;5028334;28;20378;-82
2022/07/12 10:44:06;;;;;;;2.20;0.93;;;26.20;90.20;;;;;;5014074;28;20403;-85
2022/07/12 10:46:34;;;;;;;3.20;1.00;;;26.20;89.60;;;;;;5022514;28;20424;-84
2022/07/12 10:49:29;;;;;;;1.35;0.70;;;26.40;92.10;;;;;;5018517;28;20455;-83
2022/07/12 10:52:10;;;;;;;1.70;0.77;;;26.70;89.50;;;;;;5007775;28;20453;-84
2022/07/12 10:54:50;;;;;;;2.05;0.77;;;26.70;83.70;;;;;;5016109;28;20386;-83
2022/07/12 10:57:36;;;;;;;2.88;0.60;;;26.40;86.80;;;;;;5027763;28;20403;-83
2022/07/12 11:00:03;;;;;;;1.95;0.80;;;26.50;88.30;;;;;;5018397;28;20406;-83
2022/07/12 11:02:29;;;;;;;1.58;0.88;;;26.50;92.90;;;;;;5033678;28;20997;-82
2022/07/12 11:04:55;;;;;;;4.03;1.13;;;26.60;95.70;;;;;;5033590;28;20925;-83
2022/07/12 11:07:23;;;;;;;1.70;0.80;;;26.70;93.90;;;;;;5026493;28;20405;-84
2022/07/12 11:09:52;;;;;;;2.65;0.90;;;26.80;92.10;;;;;;5014411;28;20579;-83
2022/07/12 11:12:18;;;;;;;2.15;0.80;;;26.80;92.20;;;;;;5021431;28;20382;-82
2022/07/12 11:14:45;;;;;;;2.73;0.90;;;26.60;90.70;;;;;;5023595;28;20406;-83
2022/07/12 11:17:11;;;;;;;2.40;0.88;;;26.40;92.00;;;;;;5024120;28;20400;-83
2022/07/12 11:19:36;;;;;;;3.13;0.88;;;26.30;86.20;;;;;;5023910;28;20380;-83
2022/07/12 11:22:02;;;;;;;2.80;0.93;;;26.00;87.40;;;;;;5024212;28;20381;-83
2022/07/12 11:24:30;;;;;;;2.22;1.10;;;25.60;89.80;;;;;;5019859;28;20399;-83
2022/07/12 11:26:56;;;;;;;3.92;1.10;;;25.90;91.80;;;;;;5023836;28;20494;-82
2022/07/12 11:29:22;;;;;;;2.08;1.00;;;26.40;91.20;;;;;;5024086;28;20482;-83
2022/07/12 11:31:49;;;;;;;3.63;1.10;;;26.70;91.30;;;;;;5020238;28;20422;-83
2022/07/12 11:34:21;;;;;;;2.20;0.93;;;26.70;90.90;;;;;;5022313;28;20523;-83
2022/07/12 11:36:51;;;;;;;3.20;1.20;;;26.60;91.20;;;;;;5024107;28;20382;-83
2022/07/12 11:39:16;;;;;;;2.13;1.08;;;26.90;91.70;;;;;;5031823;28;20433;-83
2022/07/12 11:41:55;;;;;;;2.80;1.00;;;27.10;90.50;;;;;;5033781;28;20390;-82
2022/07/12 11:44:21;;;;;;;2.88;0.95;;;27.50;88.80;;;;;;5031603;28;20402;-83
2022/07/12 11:46:52;;;;;;;3.20;0.90;;;27.70;86.50;;;;;;5031532;28;20409;-83
2022/07/12 11:49:17;;;;;;;3.93;1.00;;;27.60;90.10;;;;;;5028375;28;20399;-84
2022/07/12 11:51:45;;;;;;;2.22;1.10;;;27.50;88.20;;;;;;5022419;28;20396;-82
2022/07/12 11:54:11;;;;;;;2.20;1.00;;;26.70;88.20;;;;;;5023742;28;20388;-83
2022/07/12 11:56:37;;;;;;;1.50;0.90;;;26.30;90.60;;;;;;5023037;28;20380;-83
2022/07/12 11:59:02;;;;;;;2.87;1.00;;;26.40;90.20;;;;;;5021254;28;20816;-83
2022/07/12 12:01:28;;;;;;;2.38;0.98;;;26.40;90.30;;;;;;5023072;28;20377;-83
2022/07/12 12:03:56;;;;;;;1.58;1.08;;;26.50;90.90;;;;;;5021288;28;20384;-83
2022/07/12 12:06:22;;;;;;;2.30;0.90;;;26.60;88.20;;;;;;5021348;28;20413;-83
2022/07/12 12:08:50;;;;;;;1.45;1.10;;;26.30;90.10;;;;;;5022891;28;20377;-85
2022/07/12 12:11:16;;;;;;;2.20;0.75;;;26.10;91.00;;;;;;5014140;28;20844;-83
2022/07/12 12:13:55;;;;;;;2.05;1.00;;;26.30;88.40;;;;;;5023357;28;20481;-83
2022/07/12 12:16:21;;;;;;;2.30;1.30;;;26.10;88.50;;;;;;5017734;28;20395;-83
2022/07/12 12:18:50;;;;;;;2.00;1.07;;;26.20;89.30;;;;;;5030410;28;20390;-84
2022/07/12 12:21:16;;;;;;;2.75;1.00;;;26.30;90.10;;;;;;5035082;28;20483;-83
2022/07/12 12:23:42;;;;;;;3.25;1.10;;;26.50;91.50;;;;;;5033247;28;20607;-85
2022/07/12 12:26:16;;;;;;;2.63;0.90;;;26.60;90.60;;;;;;5032165;28;20405;-85
2022/07/12 12:28:44;;;;;;;2.90;1.20;;;26.80;91.00;;;;;;5033338;28;20382;-84
2022/07/12 12:31:11;;;;;;;3.00;0.90;;;27.30;88.90;;;;;;5033154;28;20771;-83
2022/07/12 12:33:37;;;;;;;2.35;0.90;;;27.50;86.00;;;;;;5032524;28;20890;-85
2022/07/12 12:36:25;;;;;;;3.50;1.00;;;27.60;86.20;;;;;;5022787;28;20381;-82
2022/07/12 12:39:01;;;;;;;2.05;0.93;;;27.50;85.70;;;;;;5025885;28;20400;-83
2022/07/12 12:41:29;;;;;;;1.95;0.98;;;27.30;87.80;;;;;;5021358;28;20417;-85
2022/07/12 12:44:07;;;;;;;2.85;1.00;;;27.30;86.90;;;;;;5006975;28;20853;-84
2022/07/12 12:47:30;;;;;;;1.90;0.90;;;27.30;87.70;;;;;;5022690;28;20425;-82
2022/07/12 12:49:52;;;;;;;2.00;1.00;;;27.00;84.80;;;;;;5022240;28;20379;-84
2022/07/12 12:52:22;;;;;;;3.50;0.93;;;26.80;87.80;;;;;;5023799;28;20375;-84
2022/07/12 12:54:49;;;;;;;2.85;1.00;;;26.70;87.80;;;;;;5024384;28;20469;-85
2022/07/12 12:57:15;;;;;;;4.10;1.00;;;26.80;89.20;;;;;;5026710;28;20463;-81
2022/07/12 12:59:40;;;;;;;3.90;1.10;;;27.00;89.40;;;;;;5022893;28;20400;-86